Joseph, Oregon
Current Conditions -  °F | °C
As of 11:35 AM on Sunday 21 Dec 2014 (Local Time) from KLGD Reporting Station
Overcast Overcast  
Wind Chill: 42°   Ceiling: 4600
Heat Index: 46°   Visibility: 10mi
Dew Point: 34°   Wind: 9mph
Humidity: 62%   Direction: 280°W
Pressure: 29.94"   Gusts: NA
Location:  45.35°N, 117.23°W
Report Text: KLGD 211935Z AUTO 28008KT 10SM BKN046 OVC050 08/01 A2994 RMK AO1
Loading
Personal Weather Stations






























Interactive Weather Map New forecast layout! Learn more

10-Day Weather Forecast

Advertisements
Track Severe Weather on mobile